createdAt,value
2023-01-31T00:02:14.581Z,22.70
2023-01-31T00:04:47.781Z,23.45
2023-01-31T00:07:21.240Z,23.05
2023-01-31T00:09:54.587Z,23.30
2023-01-31T00:12:27.581Z,22.20
2023-01-31T00:15:01.391Z,22.17
2023-01-31T00:17:35.176Z,23.95
2023-01-31T00:20:10.107Z,24.95
2023-01-31T00:22:43.159Z,22.95
2023-01-31T00:25:16.083Z,25.12
2023-01-31T00:27:49.059Z,24.25
2023-01-31T00:30:22.666Z,26.73
2023-01-31T00:32:55.753Z,27.15
2023-01-31T00:35:30.181Z,25.25
2023-01-31T00:38:03.250Z,25.32
2023-01-31T00:40:37.294Z,23.67
2023-01-31T00:43:11.659Z,25.80
2023-01-31T00:45:46.391Z,26.68
2023-01-31T00:48:20.779Z,24.20
2023-01-31T00:50:54.609Z,27.60
2023-01-31T00:53:27.655Z,25.53
2023-01-31T00:56:15.385Z,25.43
2023-01-31T00:58:50.100Z,26.90
2023-01-31T01:01:30.144Z,26.70
2023-01-31T01:04:03.609Z,24.47
2023-01-31T01:06:44.470Z,26.45
2023-01-31T01:09:18.070Z,25.97
2023-01-31T01:11:52.917Z,26.82
2023-01-31T01:14:26.005Z,26.62
2023-01-31T01:16:59.462Z,26.35
2023-01-31T01:19:32.565Z,25.57
2023-01-31T01:22:05.889Z,25.50
2023-01-31T01:24:39.074Z,24.80
2023-01-31T01:27:13.108Z,23.33
2023-01-31T01:29:46.229Z,23.65
2023-01-31T01:32:19.246Z,25.00
2023-01-31T01:34:52.609Z,23.60
2023-01-31T01:37:25.622Z,24.98
2023-01-31T01:39:58.943Z,22.37
2023-01-31T01:42:36.409Z,22.62
2023-01-31T01:45:18.858Z,21.30
2023-01-31T01:47:57.734Z,20.92
2023-01-31T01:50:37.769Z,23.92
2023-01-31T01:53:18.111Z,22.35
2023-01-31T01:56:03.876Z,23.10
2023-01-31T01:58:43.452Z,22.25
2023-01-31T02:01:17.778Z,20.23
2023-01-31T02:03:52.895Z,23.27
2023-01-31T02:06:26.790Z,22.13
2023-01-31T02:09:00.355Z,23.50
2023-01-31T02:11:34.275Z,23.07
2023-01-31T02:14:10.204Z,22.98
2023-01-31T02:16:43.698Z,22.93
2023-01-31T02:19:38.575Z,22.82
2023-01-31T02:22:16.133Z,22.02
2023-01-31T02:25:10.905Z,22.02
2023-01-31T02:28:14.521Z,23.52
2023-01-31T02:31:26.374Z,22.85
2023-01-31T02:34:12.420Z,24.27
2023-01-31T02:37:10.431Z,23.47
2023-01-31T02:39:58.079Z,23.40
2023-01-31T02:42:58.072Z,24.25
2023-01-31T02:45:47.858Z,22.95
2023-01-31T02:48:49.547Z,24.40
2023-01-31T02:51:36.601Z,24.85
2023-01-31T02:54:22.801Z,23.67
2023-01-31T02:56:56.264Z,24.30
2023-01-31T02:59:31.111Z,24.45
2023-01-31T03:02:05.536Z,21.80
2023-01-31T03:04:39.312Z,24.87
2023-01-31T03:07:26.579Z,24.02
2023-01-31T03:10:39.202Z,22.90
2023-01-31T03:13:37.713Z,23.90
2023-01-31T03:16:51.244Z,23.47
2023-01-31T03:19:37.985Z,24.52
2023-01-31T03:22:17.013Z,23.77
2023-01-31T03:24:53.057Z,22.30
2023-01-31T03:27:26.359Z,20.75
2023-01-31T03:30:04.061Z,26.00
2023-01-31T03:32:42.035Z,26.05
2023-01-31T03:35:15.613Z,23.65
2023-01-31T03:37:59.796Z,24.27
2023-01-31T03:40:37.690Z,24.02
2023-01-31T03:43:18.097Z,24.40
2023-01-31T03:46:03.658Z,25.17
2023-01-31T03:48:42.618Z,23.02
2023-01-31T03:51:21.552Z,25.12
2023-01-31T03:54:01.795Z,24.35
2023-01-31T03:56:45.664Z,23.85
2023-01-31T03:59:26.044Z,22.82
2023-01-31T04:02:01.933Z,21.97
2023-01-31T04:04:40.469Z,23.52
2023-01-31T04:07:14.521Z,23.30
2023-01-31T04:09:47.598Z,22.10
2023-01-31T04:12:20.900Z,22.15
2023-01-31T04:14:53.992Z,21.70
2023-01-31T04:17:27.158Z,20.85
2023-01-31T04:20:00.729Z,21.55
2023-01-31T04:22:34.591Z,22.30
2023-01-31T04:25:09.272Z,24.05
2023-01-31T04:27:43.667Z,21.75
2023-01-31T04:30:16.668Z,20.72
2023-01-31T04:32:50.412Z,21.27
2023-01-31T04:35:23.551Z,22.83
2023-01-31T04:37:58.300Z,22.13
2023-01-31T04:40:33.005Z,20.32
2023-01-31T04:43:06.459Z,20.68
2023-01-31T04:45:42.239Z,19.87
2023-01-31T04:48:15.389Z,22.70
2023-01-31T04:50:48.577Z,22.37
2023-01-31T04:53:22.700Z,20.77
2023-01-31T04:55:58.581Z,21.55
2023-01-31T04:58:32.861Z,21.12
2023-01-31T05:03:38.503Z,22.22
2023-01-31T05:06:11.419Z,21.48
2023-01-31T05:08:45.260Z,21.20
2023-01-31T05:13:52.303Z,21.25
2023-01-31T05:16:25.399Z,23.70
2023-01-31T05:18:58.524Z,22.63
2023-01-31T05:21:33.094Z,22.85
2023-01-31T05:24:08.535Z,21.33
2023-01-31T05:26:42.042Z,26.27
2023-01-31T05:29:15.678Z,26.53
2023-01-31T05:31:50.276Z,23.73
2023-01-31T05:34:24.550Z,21.97
2023-01-31T05:36:58.246Z,22.40
2023-01-31T05:42:04.482Z,19.45
2023-01-31T05:44:37.436Z,22.67
2023-01-31T05:47:10.447Z,22.70
2023-01-31T05:49:43.785Z,21.85
2023-01-31T05:52:16.905Z,23.45
2023-01-31T05:54:49.901Z,21.97
2023-01-31T05:57:22.924Z,22.58
2023-01-31T05:59:55.739Z,20.30
2023-01-31T06:02:28.804Z,21.68
2023-01-31T06:05:02.141Z,23.07
2023-01-31T06:07:36.522Z,21.30
2023-01-31T06:10:11.973Z,19.35
2023-01-31T06:12:45.013Z,20.60
2023-01-31T06:15:19.872Z,20.77
2023-01-31T06:17:53.048Z,20.25
2023-01-31T06:20:27.155Z,22.73
2023-01-31T06:23:01.676Z,21.30
2023-01-31T06:25:34.683Z,21.02
2023-01-31T06:28:08.095Z,20.08
2023-01-31T06:33:15.094Z,20.32
2023-01-31T06:38:20.456Z,21.15
2023-01-31T06:40:53.534Z,20.82
2023-01-31T06:43:26.727Z,20.95
2023-01-31T06:45:59.984Z,20.70
2023-01-31T06:48:33.310Z,23.75
2023-01-31T06:51:07.263Z,26.20
2023-01-31T06:56:12.807Z,25.48
2023-01-31T06:58:45.747Z,29.95
2023-01-31T07:01:19.075Z,38.87
2023-01-31T07:03:52.229Z,28.80
2023-01-31T07:06:25.196Z,35.17
2023-01-31T07:08:58.834Z,35.10
2023-01-31T07:11:32.636Z,38.35
2023-01-31T07:14:05.947Z,46.58
2023-01-31T07:16:39.566Z,44.65
2023-01-31T07:19:12.520Z,43.63
2023-01-31T07:21:47.531Z,42.20
2023-01-31T07:24:20.716Z,39.08
2023-01-31T07:26:55.235Z,37.37
2023-01-31T07:29:31.284Z,39.55
2023-01-31T07:32:04.429Z,35.60
2023-01-31T07:37:10.292Z,34.08
2023-01-31T07:39:43.172Z,30.72
2023-01-31T07:42:16.499Z,25.23
2023-01-31T07:44:49.879Z,23.75
2023-01-31T07:47:23.032Z,25.55
2023-01-31T07:49:56.997Z,28.17
2023-01-31T07:52:30.780Z,37.30
2023-01-31T07:55:04.319Z,27.85
2023-01-31T07:57:38.360Z,29.05
2023-01-31T08:00:14.741Z,34.35
2023-01-31T08:03:05.775Z,29.52
2023-01-31T08:05:38.989Z,36.85
2023-01-31T08:08:12.066Z,35.40
2023-01-31T08:10:47.306Z,29.33
2023-01-31T08:13:22.602Z,26.57
2023-01-31T08:15:56.289Z,43.63
2023-01-31T08:18:29.482Z,38.08
2023-01-31T08:23:36.335Z,43.05
2023-01-31T08:26:16.720Z,26.80
2023-01-31T08:28:52.040Z,26.42
2023-01-31T08:31:27.613Z,20.95
2023-01-31T08:34:00.674Z,19.95
2023-01-31T08:36:36.031Z,19.10
2023-01-31T08:39:09.347Z,17.10
2023-01-31T08:41:42.873Z,17.60
2023-01-31T08:44:15.822Z,17.43
2023-01-31T08:46:48.749Z,17.27
2023-01-31T08:49:21.815Z,18.27
2023-01-31T08:51:54.771Z,18.80
2023-01-31T08:54:27.784Z,18.87
2023-01-31T08:57:00.757Z,17.98
2023-01-31T08:59:33.727Z,18.70
2023-01-31T09:02:06.830Z,19.25
2023-01-31T09:04:40.267Z,17.70
2023-01-31T09:07:13.105Z,17.00
2023-01-31T09:09:46.926Z,18.42
2023-01-31T09:12:19.845Z,16.97
2023-01-31T09:14:54.031Z,16.40
2023-01-31T09:17:27.218Z,16.55
2023-01-31T09:20:00.564Z,19.33
2023-01-31T09:22:35.199Z,18.50
2023-01-31T09:25:09.916Z,16.10
2023-01-31T09:27:43.162Z,16.95
2023-01-31T09:30:17.240Z,16.70
2023-01-31T09:32:50.382Z,16.40
2023-01-31T09:35:23.672Z,16.50
2023-01-31T09:37:56.789Z,14.40
2023-01-31T09:40:33.308Z,14.75
2023-01-31T09:43:10.118Z,18.35
2023-01-31T09:45:44.147Z,16.40
2023-01-31T09:48:23.977Z,16.05
2023-01-31T09:50:59.247Z,17.35
2023-01-31T09:53:38.081Z,17.17
2023-01-31T09:56:28.402Z,15.23
2023-01-31T09:59:21.103Z,13.08
2023-01-31T10:02:24.162Z,11.55
2023-01-31T10:05:30.814Z,9.23
2023-01-31T10:08:24.116Z,10.28
2023-01-31T10:11:00.649Z,12.35
2023-01-31T10:13:39.392Z,12.35
2023-01-31T10:16:31.902Z,12.55
2023-01-31T10:19:09.649Z,12.10
2023-01-31T10:21:47.328Z,11.95
2023-01-31T10:24:30.491Z,12.60
2023-01-31T10:27:20.264Z,13.53
2023-01-31T10:29:56.343Z,12.80
2023-01-31T10:32:43.670Z,13.43
2023-01-31T10:35:32.305Z,14.83
2023-01-31T10:38:09.949Z,13.55
2023-01-31T10:40:46.868Z,14.87
2023-01-31T10:43:27.667Z,15.48
2023-01-31T10:46:02.425Z,18.65
2023-01-31T10:48:36.914Z,14.38
2023-01-31T10:51:17.743Z,14.68
2023-01-31T10:54:21.548Z,13.10
2023-01-31T10:56:54.713Z,14.78
2023-01-31T10:59:34.619Z,14.90
2023-01-31T11:02:11.368Z,14.93
2023-01-31T11:04:45.392Z,16.50
2023-01-31T11:07:20.412Z,14.80
2023-01-31T11:09:55.828Z,13.62
2023-01-31T11:12:46.353Z,16.95
2023-01-31T11:15:22.024Z,14.78
2023-01-31T11:17:55.262Z,16.97
2023-01-31T11:20:40.546Z,14.23
2023-01-31T11:23:24.435Z,15.03
2023-01-31T11:25:57.871Z,14.83
2023-01-31T11:28:42.649Z,13.20
2023-01-31T11:31:23.034Z,16.15
2023-01-31T11:34:04.992Z,14.93
2023-01-31T11:36:47.248Z,15.70
2023-01-31T11:39:28.979Z,17.62
2023-01-31T11:42:12.780Z,20.75
2023-01-31T11:45:06.665Z,17.57
2023-01-31T11:47:50.390Z,19.92
2023-01-31T11:50:39.704Z,22.65
2023-01-31T11:53:29.072Z,19.37
2023-01-31T11:56:16.087Z,21.50
2023-01-31T11:58:51.473Z,22.67
2023-01-31T12:01:26.818Z,20.65
2023-01-31T12:04:04.783Z,24.50
2023-01-31T12:06:43.253Z,22.40
2023-01-31T12:09:25.860Z,23.87
2023-01-31T12:12:08.010Z,23.73
2023-01-31T12:14:43.734Z,38.53
2023-01-31T12:17:20.726Z,30.20
2023-01-31T12:20:26.571Z,24.63
2023-01-31T12:22:55.748Z,20.82
2023-01-31T12:25:55.078Z,22.93
2023-01-31T12:28:49.269Z,24.35
2023-01-31T12:31:46.892Z,20.17
2023-01-31T12:35:03.309Z,29.30
2023-01-31T12:37:50.969Z,51.58
2023-01-31T12:40:39.409Z,32.48
2023-01-31T12:43:22.595Z,33.48
2023-01-31T12:46:15.568Z,44.98
2023-01-31T12:49:19.312Z,82.90
2023-01-31T12:52:20.717Z,50.55
2023-01-31T12:55:22.882Z,42.95
2023-01-31T12:58:12.807Z,45.90
2023-01-31T13:01:06.310Z,48.17
2023-01-31T13:03:59.448Z,80.83
2023-01-31T13:06:49.047Z,95.38
2023-01-31T13:09:27.589Z,58.95
2023-01-31T13:12:20.186Z,50.43
2023-01-31T13:15:10.585Z,40.35
2023-01-31T13:17:45.660Z,47.05
2023-01-31T13:23:25.387Z,42.62
2023-01-31T13:26:15.173Z,39.50
2023-01-31T13:29:22.951Z,42.80
2023-01-31T13:32:12.177Z,35.40
2023-01-31T13:34:54.307Z,34.67
2023-01-31T13:37:30.766Z,29.98
2023-01-31T13:40:20.440Z,30.55
2023-01-31T13:42:54.448Z,33.83
2023-01-31T13:45:37.540Z,36.33
2023-01-31T13:48:24.263Z,37.78
2023-01-31T13:51:18.348Z,50.15
2023-01-31T13:53:56.345Z,43.17
2023-01-31T13:56:33.474Z,50.50
2023-01-31T13:59:11.705Z,46.13
2023-01-31T14:01:48.624Z,49.42
2023-01-31T14:04:26.235Z,55.45
2023-01-31T14:07:10.507Z,43.33
2023-01-31T14:09:54.040Z,44.25
2023-01-31T14:12:34.682Z,47.08
2023-01-31T14:15:46.382Z,50.67
2023-01-31T14:18:44.301Z,50.30
2023-01-31T14:21:37.873Z,60.78
2023-01-31T14:24:15.647Z,61.50
2023-01-31T14:26:55.096Z,69.60
2023-01-31T14:29:28.686Z,67.82
2023-01-31T14:32:01.560Z,67.27
2023-01-31T14:34:36.366Z,68.00
2023-01-31T14:37:35.030Z,66.25
2023-01-31T14:40:15.790Z,62.55
2023-01-31T14:43:13.513Z,49.67
2023-01-31T14:46:03.236Z,46.00
2023-01-31T14:49:06.765Z,47.10
2023-01-31T14:52:04.364Z,41.85
2023-01-31T14:54:47.931Z,41.18
2023-01-31T14:57:28.124Z,42.53
2023-01-31T15:00:08.529Z,44.73
2023-01-31T15:02:55.568Z,44.63
2023-01-31T15:05:39.956Z,46.75
2023-01-31T15:08:20.867Z,52.83
2023-01-31T15:11:40.774Z,54.10
2023-01-31T15:14:00.949Z,52.62
2023-01-31T15:16:36.419Z,68.47
2023-01-31T15:19:20.453Z,62.17
2023-01-31T15:22:03.826Z,65.70
2023-01-31T15:24:45.885Z,68.55
2023-01-31T15:27:33.802Z,77.92
2023-01-31T15:30:14.275Z,79.27
2023-01-31T15:33:02.697Z,81.17
2023-01-31T15:35:53.211Z,83.27
2023-01-31T15:38:37.137Z,84.62
2023-01-31T15:41:24.349Z,86.42
2023-01-31T15:44:00.207Z,86.82
2023-01-31T15:46:36.426Z,90.00
2023-01-31T15:49:39.612Z,88.85
2023-01-31T15:52:17.760Z,86.40
2023-01-31T15:54:59.888Z,80.42
2023-01-31T15:57:45.623Z,78.35
2023-01-31T16:00:31.750Z,103.38
2023-01-31T16:03:08.187Z,97.55
2023-01-31T16:05:42.053Z,101.65
2023-01-31T16:08:37.641Z,91.63
2023-01-31T16:11:12.056Z,91.72
2023-01-31T16:13:46.120Z,86.22
2023-01-31T16:16:20.160Z,83.78
2023-01-31T16:18:56.325Z,135.43
2023-01-31T16:21:40.219Z,119.17
2023-01-31T16:24:20.809Z,102.92
2023-01-31T16:27:15.869Z,141.90
2023-01-31T16:29:58.937Z,236.80
2023-01-31T16:32:37.988Z,241.15
2023-01-31T16:35:25.832Z,235.97
2023-01-31T16:38:08.917Z,238.32
2023-01-31T16:40:48.718Z,206.72
2023-01-31T16:43:28.590Z,178.38
2023-01-31T16:46:09.792Z,161.30
2023-01-31T16:48:42.922Z,163.50
2023-01-31T16:51:29.538Z,161.03
2023-01-31T16:54:26.443Z,169.93
2023-01-31T16:57:08.678Z,182.30
2023-01-31T16:59:45.904Z,233.95
2023-01-31T17:02:26.697Z,241.55
2023-01-31T17:05:03.144Z,290.73
2023-01-31T17:07:38.259Z,256.07
2023-01-31T17:10:13.502Z,223.38
2023-01-31T17:12:46.921Z,221.57
2023-01-31T17:15:22.102Z,144.97
2023-01-31T17:17:55.567Z,180.30
2023-01-31T17:20:28.757Z,122.43
2023-01-31T17:23:03.305Z,111.60
2023-01-31T17:25:37.655Z,106.37
2023-01-31T17:28:11.464Z,119.45
2023-01-31T17:30:46.686Z,129.30
2023-01-31T17:33:20.048Z,135.25
2023-01-31T17:35:53.098Z,133.45
2023-01-31T17:38:27.584Z,117.60
2023-01-31T17:41:00.989Z,128.65
2023-01-31T17:43:34.049Z,133.52
2023-01-31T17:46:07.200Z,124.67
2023-01-31T17:48:40.106Z,124.35
2023-01-31T17:51:13.887Z,132.27
2023-01-31T17:53:50.196Z,120.92
2023-01-31T17:56:22.592Z,141.65
2023-01-31T17:58:55.558Z,137.13
2023-01-31T18:01:28.656Z,139.62
2023-01-31T18:04:01.640Z,141.13
2023-01-31T18:06:36.249Z,144.85
2023-01-31T18:09:10.531Z,141.73
2023-01-31T18:11:44.862Z,136.35
2023-01-31T18:14:19.046Z,135.03
2023-01-31T18:16:54.436Z,134.55
2023-01-31T18:19:28.708Z,127.97
2023-01-31T18:22:01.700Z,125.10
2023-01-31T18:24:35.132Z,134.00
2023-01-31T18:27:08.325Z,138.45
2023-01-31T18:29:41.267Z,162.53
2023-01-31T18:32:14.816Z,162.82
2023-01-31T18:34:49.525Z,159.50
2023-01-31T18:37:22.924Z,143.32
2023-01-31T18:39:56.022Z,143.97
2023-01-31T18:42:29.365Z,153.60
2023-01-31T18:45:04.008Z,159.22
2023-01-31T18:47:37.256Z,152.30
2023-01-31T18:50:11.304Z,167.05
2023-01-31T18:52:44.704Z,161.88
2023-01-31T18:55:17.822Z,165.13
2023-01-31T18:57:51.294Z,161.07
2023-01-31T19:00:24.772Z,166.93
2023-01-31T19:02:58.935Z,177.75
2023-01-31T19:05:32.034Z,167.43
2023-01-31T19:08:05.165Z,161.70
2023-01-31T19:10:38.332Z,167.03
2023-01-31T19:13:11.319Z,194.80
2023-01-31T19:15:44.500Z,251.53
2023-01-31T19:18:18.021Z,142.85
2023-01-31T19:20:51.063Z,157.10
2023-01-31T19:23:23.961Z,154.57
2023-01-31T19:25:57.410Z,135.85
2023-01-31T19:28:30.913Z,130.40
2023-01-31T19:31:10.768Z,143.40
2023-01-31T19:33:46.336Z,81.55
2023-01-31T19:36:29.813Z,71.30
2023-01-31T19:39:06.070Z,73.37
2023-01-31T19:41:39.224Z,65.67
2023-01-31T19:44:12.393Z,53.87
2023-01-31T19:46:46.613Z,44.80
2023-01-31T19:49:23.164Z,42.27
2023-01-31T19:51:56.197Z,40.15
2023-01-31T19:54:29.674Z,42.78
2023-01-31T19:57:02.603Z,38.90
2023-01-31T19:59:36.635Z,37.10
2023-01-31T20:02:12.858Z,39.90
2023-01-31T20:04:46.887Z,43.13
2023-01-31T20:07:20.655Z,39.45
2023-01-31T20:09:54.153Z,40.12
2023-01-31T20:12:27.143Z,39.42
2023-01-31T20:15:01.489Z,42.85
2023-01-31T20:20:09.681Z,39.85
2023-01-31T20:22:43.254Z,39.80
2023-01-31T20:25:16.482Z,37.88
2023-01-31T20:27:50.042Z,41.33
2023-01-31T20:30:23.897Z,44.45
2023-01-31T20:35:29.702Z,41.42
2023-01-31T20:38:03.075Z,41.08
2023-01-31T20:43:08.897Z,37.85
2023-01-31T20:45:42.049Z,41.93
2023-01-31T20:48:16.277Z,39.23
2023-01-31T20:50:57.777Z,34.78
2023-01-31T20:53:32.255Z,33.75
2023-01-31T21:01:14.531Z,26.25
2023-01-31T21:03:47.531Z,26.07
2023-01-31T21:06:20.743Z,27.33
2023-01-31T21:08:55.536Z,28.73
2023-01-31T21:11:29.135Z,26.48
2023-01-31T21:14:02.871Z,29.85
2023-01-31T21:16:36.117Z,28.80
2023-01-31T21:19:09.064Z,29.77
2023-01-31T21:21:41.980Z,27.95
2023-01-31T21:24:14.966Z,29.02
2023-01-31T21:26:48.689Z,26.62
2023-01-31T21:29:21.552Z,31.17
2023-01-31T21:31:54.961Z,27.93
2023-01-31T21:34:28.160Z,29.57
2023-01-31T21:37:01.321Z,29.48
2023-01-31T21:39:34.656Z,26.07
2023-01-31T21:42:16.403Z,28.57
2023-01-31T21:44:50.248Z,25.68
2023-01-31T21:47:23.488Z,26.37
2023-01-31T21:49:56.549Z,29.45
2023-01-31T21:52:29.521Z,26.87
2023-01-31T21:55:02.348Z,27.87
2023-01-31T21:57:35.685Z,23.77
2023-01-31T22:00:10.571Z,23.77
2023-01-31T22:02:43.882Z,21.45
2023-01-31T22:05:16.792Z,25.00
2023-01-31T22:07:50.432Z,25.05
2023-01-31T22:10:23.615Z,25.43
2023-01-31T22:15:29.081Z,29.27
2023-01-31T22:18:02.832Z,28.98
2023-01-31T22:20:35.818Z,38.58
2023-01-31T22:23:08.776Z,40.92
2023-01-31T22:25:41.681Z,44.10
2023-01-31T22:28:14.913Z,47.50
2023-01-31T22:30:57.667Z,58.00
2023-01-31T22:33:38.773Z,55.52
2023-01-31T22:36:14.551Z,47.78
2023-01-31T22:38:47.877Z,32.55
2023-01-31T22:41:20.995Z,34.30
2023-01-31T22:43:55.385Z,39.33
2023-01-31T22:46:30.435Z,38.33
2023-01-31T22:49:03.495Z,33.83
2023-01-31T22:51:37.633Z,31.95
2023-01-31T22:54:11.289Z,43.17
2023-01-31T22:56:44.435Z,44.33
2023-01-31T22:59:17.237Z,45.58
2023-01-31T23:01:50.561Z,55.63
2023-01-31T23:04:23.755Z,52.45
2023-01-31T23:06:57.355Z,56.63
2023-01-31T23:09:30.564Z,60.65
2023-01-31T23:12:03.999Z,62.13
2023-01-31T23:14:37.298Z,62.80
2023-01-31T23:17:29.793Z,56.50
2023-01-31T23:20:03.041Z,47.55
2023-01-31T23:22:38.010Z,30.48
2023-01-31T23:25:13.557Z,27.00
2023-01-31T23:27:46.487Z,23.10
2023-01-31T23:30:21.880Z,26.55
2023-01-31T23:32:55.229Z,26.77
2023-01-31T23:35:28.882Z,25.65
2023-01-31T23:38:01.738Z,24.07
2023-01-31T23:40:35.419Z,23.97
2023-01-31T23:43:08.474Z,24.65
2023-01-31T23:45:41.409Z,25.77
2023-01-31T23:48:14.429Z,24.98
2023-01-31T23:50:47.555Z,24.43
2023-01-31T23:53:20.469Z,27.45
2023-01-31T23:55:53.921Z,28.10
2023-01-31T23:58:26.881Z,27.00
